Pagrindinis puslapis
METAR-TAF:

METAR-TAF

Oro uostai :

Red Dog Mine, Aliaska, Jungtinės Amerikos Valstijos

platuma: 68-01-56N, ilguma: 162-53-57W, Aukštis: 295 m

Dabartinis oras

Ataskaita buvo paskelbta 36 minutes, ne 23:12 UTC
Vėjas 10 kt iš Vakarų/Pietvakarių
Temperatūra 16°C
Drėgmė 59%
Slėgis 1015 hPa
Matomumas: 24.1 km
Išsisklaidę debesys ne aukštis 6000 ft
Su prošvaistėmis ne aukštis 8000 ft

METAR: PADG 052312Z 25010KT 15SM SCT060 BKN080 16/08 A2996

Laikas: 15:48 (23:48 UTC)


TAF: trūkstamas

Orai ataskaitas ir orų prognozės (METAR, TAF).

turimą stotys yra geltonos ir raudonos taškus žemėlapyje.

Perkelti pele per norėdami pamatyti stoties vardą.

Tada spustelėkite, norėdami matyti oro stebėjimo ir prognozės.

Norėdami pakeisti žemėlapį: spustelėkite ant žalios mygtukų su juodo kryžiaus žemyn,; žalią mygtuką su brūkšneliu, jei norite nutolinti; arba žalių rodyklių gretimoms žemėlapius.


METAR-TAF: